Aérodrome :
LOGIN :

S'inscrire | Disclaimer

   EN    FR    IT 

 










Légende :    VFR   VFR Marginal   IFR   IFR Intensif   IFR Très Intensif
Visi : 
Plafond : 
>= 8 km
>= 3000ft
5 à 8 km
1000 à 3000 ft
1500m à 5 km
500 à 1000 ft
800 à 1500m
200 à 500 ft
< 800m
< 200 ft
Symboles :   Orages  Brouillard  Fortes neiges  Fortes précipitations  Vent > 20 kt
SIGMETs :   Divers  Orages  Givrage  Turbulence  Onde Orograph.  Cendres Volcan.







- Altitude de l'aérodrome : 659 ft
- Code IATA : LYN
- Voir les cartes d'approche


LFLY - Lyon Bron

DERNIER METAR :
  • 171830Z AUTO 08003KT CAVOK 04/00 Q1016 NOSIG

METARs EXPIRÉS :
  • 171800Z AUTO VRB02KT CAVOK 04/M01 Q1016 NOSIG
  • 171730Z AUTO VRB02KT CAVOK 06/00 Q1015 NOSIG
  • 171700Z AUTO 34007KT 9999 FEW050 SCT070 BKN080 07/00 Q1015 TEMPO SHRA SCT030TCU
  • 171630Z AUTO 34006KT 300V360 9999 FEW054 OVC084 09/00 Q1015 TEMPO SHRA SCT030TCU
  • 171600Z AUTO 32010KT 9999 BKN052 OVC062 09/M00 Q1015 TEMPO SHRA SCT030TCU

TAF TAF LFLY
Valide du 17 à 18h jusqu'au 18 à 18h UTC


171700Z 1718/1818 36005KT 9999 BKN050
TEMPO 1718/1721 -SHRA
TEMPO 1721/1803 4000 SHRA SCT020TCU OVC025
BECMG 1803/1805 BKN012
BECMG 1811/1813 34010KT SCT025
ATIS : +33 4 72 15 87 96
Pas de NOTAMs connus pour ce terrain.



MET'MAP, la Météo Aéronautique d'un coup d'oeil ! - Copyright ORBIFLY Décembre 2007 - Disclaimer

ORBIFLY MET'MAP TEAM :

Programmation & Développement : Alexandra Zaïnal
Conception & Développement : Baudouin d'Aumeries
Co-Programmation & Développement : Marc-Olivier Méhu
Soutien technique & logistique : Manuel Goepfert

Contact : metmap@orbifly.com




SOURCES & CREDITS :

   NOAA